Terminal Aerodrome Forecast
Issued by NWS Missoula, MT

Home | Current Version | Previous Version | Text Only | Print | Product List | Glossary On
Versions: 1 2 3 4 5 6 7 8 9 10 11 12 13 14
706
FTUS45 KMSO 130520
TAFBTM
TAF
KBTM 130520Z 1306/1406 18004KT P6SM OVC070
     FM131300 31010KT 4SM -SN BR OVC025
     FM131600 30013G24KT 4SM -SN BR OVC015
     FM131800 30016G26KT P6SM VCSH OVC050
     FM140100 30008KT P6SM BKN050=

USA.gov is the U.S. government's official web portal to all federal, state and local government web resources and services.